Date,TemperatureHighF,TemperatureAvgF,TemperatureLowF,DewpointHighF,DewpointAvgF,DewpointLowF,HumidityHigh,HumidityAvg,HumidityLow,PressureMaxIn,PressureMinIn,WindSpeedMaxMPH,WindSpeedAvgMPH,GustSpeedMaxMPH,PrecipitationSumIn
2013-3-1,48,40,31,35,31,28,93,72,56,29.59,29.51,3,0,12,0.00
2013-3-2,46,39,32,32,29,23,84,69,55,29.59,29.49,3,1,10,0.00
2013-3-3,45,36,28,28,25,20,81,65,49,29.65,29.51,5,1,13,0.00
2013-3-4,49,36,26,25,22,19,80,59,35,29.78,29.64,4,1,20,0.00
2013-3-5,53,40,28,45,36,24,100,85,50,29.78,29.29,2,0,12,0.02
2013-3-6,42,39,36,42,38,34,100,95,80,29.68,29.15,8,3,26,0.02
2013-3-7,49,41,32,38,34,29,98,78,61,29.90,29.68,3,1,12,0.00
2013-3-8,53,41,29,35,31,26,92,69,48,29.96,29.81,6,2,20,0.00
2013-3-9,61,44,30,56,33,28,100,67,38,30.02,29.93,4,1,12,0.00
2013-3-10,66,47,28,40,32,27,99,63,28,30.03,29.91,3,1,8,0.00
2013-3-11,70,54,34,56,46,32,96,76,58,29.96,29.66,6,2,13,0.00
2013-3-12,69,61,49,67,58,41,100,90,72,29.67,29.43,5,2,15,0.27
2013-3-13,56,46,33,42,35,26,100,68,42,29.80,29.62,5,1,14,0.01
2013-3-14,52,40,29,28,25,22,80,57,37,29.91,29.78,5,1,14,0.01
2013-3-15,61,44,26,40,31,21,86,61,44,29.86,29.58,5,1,15,0.00
2013-3-16,76,60,47,61,49,38,98,68,52,29.58,29.30,5,1,14,0.00
2013-3-17,57,48,40,56,47,39,100,96,87,29.90,29.50,6,2,13,0.00
2013-3-18,44,40,37,44,40,37,100,100,100,29.91,29.57,3,1,9,0.16
2013-3-19,66,51,41,53,40,23,100,74,28,29.70,29.50,5,1,16,0.15
2013-3-20,55,46,35,30,24,17,75,43,31,29.80,29.48,4,1,9,0.01
2013-3-21,44,36,29,33,27,17,94,71,40,29.65,29.41,5,1,15,0.00
2013-3-22,52,36,23,24,20,16,75,54,30,29.76,29.64,5,1,12,0.00
2013-3-23,56,41,28,36,30,24,89,68,40,29.75,29.60,2,0,8,0.00
2013-3-24,40,36,30,39,35,28,98,94,83,29.63,29.28,4,1,16,0.84
2013-3-25,48,40,35,40,34,28,100,83,54,29.47,29.23,6,1,16,0.04
2013-3-26,48,41,33,35,32,27,85,70,56,29.77,29.47,4,1,12,0.00
2013-3-27,52,41,30,33,30,26,92,66,42,29.90,29.77,5,1,12,0.00
2013-3-28,55,43,29,34,30,26,90,64,41,29.97,29.83,5,1,14,0.00
2013-3-29,60,45,28,37,32,25,95,64,39,30.01,29.85,3,1,12,0.00
2013-3-30,66,49,32,41,36,29,91,64,36,29.93,29.78,4,1,9,0.00
2013-3-31,67,54,45,62,52,-100,100,94,80,29.81,29.49,5,1,10,0.17